sensor_id;sensor_type;location;lat;lon;timestamp;pressure;altitude;pressure_sealevel;temperature;humidity
8641;BME280;4358;42.100;25.222;2023-01-30T00:00:50;100502.44;;;4.36;100.00
8641;BME280;4358;42.100;25.222;2023-01-30T00:03:18;100503.28;;;4.36;100.00
8641;BME280;4358;42.100;25.222;2023-01-30T00:05:44;100495.66;;;4.29;100.00
8641;BME280;4358;42.100;25.222;2023-01-30T00:08:11;100499.09;;;4.31;100.00
8641;BME280;4358;42.100;25.222;2023-01-30T00:10:38;100498.16;;;4.33;100.00
8641;BME280;4358;42.100;25.222;2023-01-30T00:13:06;100491.72;;;4.42;100.00
8641;BME280;4358;42.100;25.222;2023-01-30T00:15:33;100491.47;;;4.49;100.00
8641;BME280;4358;42.100;25.222;2023-01-30T00:18:00;100482.03;;;4.44;100.00
8641;BME280;4358;42.100;25.222;2023-01-30T00:20:27;100473.25;;;4.45;100.00
8641;BME280;4358;42.100;25.222;2023-01-30T00:22:54;100484.53;;;4.47;100.00
8641;BME280;4358;42.100;25.222;2023-01-30T00:25:20;100488.84;;;4.49;100.00
8641;BME280;4358;42.100;25.222;2023-01-30T00:27:47;100491.47;;;4.49;100.00
8641;BME280;4358;42.100;25.222;2023-01-30T00:30:16;100484.47;;;4.50;100.00
8641;BME280;4358;42.100;25.222;2023-01-30T00:32:43;100483.69;;;4.46;100.00
8641;BME280;4358;42.100;25.222;2023-01-30T00:35:09;100480.47;;;4.38;100.00
8641;BME280;4358;42.100;25.222;2023-01-30T00:37:36;100483.00;;;4.40;100.00
8641;BME280;4358;42.100;25.222;2023-01-30T00:40:04;100481.25;;;4.40;100.00
8641;BME280;4358;42.100;25.222;2023-01-30T00:42:31;100482.41;;;4.32;100.00
8641;BME280;4358;42.100;25.222;2023-01-30T00:45:16;100488.88;;;4.21;100.00
8641;BME280;4358;42.100;25.222;2023-01-30T00:48:01;100488.16;;;4.16;100.00
8641;BME280;4358;42.100;25.222;2023-01-30T00:50:29;100480.38;;;4.13;100.00
8641;BME280;4358;42.100;25.222;2023-01-30T00:53:08;100466.25;;;4.17;100.00
8641;BME280;4358;42.100;25.222;2023-01-30T00:55:35;100469.59;;;4.22;100.00
8641;BME280;4358;42.100;25.222;2023-01-30T00:58:02;100448.56;;;4.22;100.00
8641;BME280;4358;42.100;25.222;2023-01-30T01:00:30;100457.75;;;4.36;100.00
8641;BME280;4358;42.100;25.222;2023-01-30T01:02:57;100455.97;;;4.36;100.00
8641;BME280;4358;42.100;25.222;2023-01-30T01:05:24;100450.03;;;4.31;100.00
8641;BME280;4358;42.100;25.222;2023-01-30T01:07:51;100457.88;;;4.33;100.00
8641;BME280;4358;42.100;25.222;2023-01-30T01:10:18;100457.81;;;4.34;100.00
8641;BME280;4358;42.100;25.222;2023-01-30T01:12:45;100460.38;;;4.36;100.00
8641;BME280;4358;42.100;25.222;2023-01-30T01:15:13;100455.13;;;4.36;100.00
8641;BME280;4358;42.100;25.222;2023-01-30T01:17:41;100456.84;;;4.37;100.00
8641;BME280;4358;42.100;25.222;2023-01-30T01:20:09;100444.59;;;4.36;100.00
8641;BME280;4358;42.100;25.222;2023-01-30T01:22:36;100455.66;;;4.45;100.00
8641;BME280;4358;42.100;25.222;2023-01-30T01:25:04;100447.88;;;4.44;100.00
8641;BME280;4358;42.100;25.222;2023-01-30T01:27:31;100461.00;;;4.44;100.00
8641;BME280;4358;42.100;25.222;2023-01-30T01:29:57;100459.97;;;4.48;100.00
8641;BME280;4358;42.100;25.222;2023-01-30T01:32:25;100449.88;;;4.36;100.00
8641;BME280;4358;42.100;25.222;2023-01-30T01:34:53;100452.84;;;4.25;100.00
8641;BME280;4358;42.100;25.222;2023-01-30T01:37:20;100457.72;;;4.09;100.00
8641;BME280;4358;42.100;25.222;2023-01-30T01:39:47;100453.75;;;3.98;100.00
8641;BME280;4358;42.100;25.222;2023-01-30T01:42:34;100452.88;;;3.97;100.00
8641;BME280;4358;42.100;25.222;2023-01-30T01:45:13;100445.78;;;3.99;100.00
8641;BME280;4358;42.100;25.222;2023-01-30T01:47:44;100439.81;;;3.94;100.00
8641;BME280;4358;42.100;25.222;2023-01-30T01:50:15;100440.66;;;3.96;100.00
8641;BME280;4358;42.100;25.222;2023-01-30T01:52:45;100441.44;;;3.98;100.00
8641;BME280;4358;42.100;25.222;2023-01-30T01:55:14;100448.09;;;4.10;100.00
8641;BME280;4358;42.100;25.222;2023-01-30T01:57:44;100441.09;;;4.09;100.00
8641;BME280;4358;42.100;25.222;2023-01-30T02:00:16;100441.81;;;4.14;100.00
8641;BME280;4358;42.100;25.222;2023-01-30T02:02:47;100439.31;;;4.11;100.00
8641;BME280;4358;42.100;25.222;2023-01-30T02:05:16;100424.41;;;4.11;100.00
8641;BME280;4358;42.100;25.222;2023-01-30T02:07:46;100427.09;;;4.08;100.00
8641;BME280;4358;42.100;25.222;2023-01-30T02:10:19;100431.38;;;4.12;100.00
8641;BME280;4358;42.100;25.222;2023-01-30T02:12:49;100425.34;;;4.09;100.00
8641;BME280;4358;42.100;25.222;2023-01-30T02:15:18;100419.84;;;4.16;100.00
8641;BME280;4358;42.100;25.222;2023-01-30T02:17:45;100417.22;;;4.16;100.00
8641;BME280;4358;42.100;25.222;2023-01-30T02:20:20;100420.56;;;4.21;100.00
8641;BME280;4358;42.100;25.222;2023-01-30T02:23:15;100408.63;;;4.11;100.00
8641;BME280;4358;42.100;25.222;2023-01-30T02:32:06;100414.09;;;4.05;100.00
8641;BME280;4358;42.100;25.222;2023-01-30T02:34:47;100406.31;;;4.02;100.00
8641;BME280;4358;42.100;25.222;2023-01-30T02:37:28;100403.59;;;4.05;100.00
8641;BME280;4358;42.100;25.222;2023-01-30T02:40:10;100402.63;;;4.08;100.00
8641;BME280;4358;42.100;25.222;2023-01-30T02:42:46;100399.84;;;4.12;100.00
8641;BME280;4358;42.100;25.222;2023-01-30T02:45:22;100405.91;;;4.14;100.00
8641;BME280;4358;42.100;25.222;2023-01-30T02:48:00;100391.16;;;4.10;100.00
8641;BME280;4358;42.100;25.222;2023-01-30T02:50:31;100404.06;;;4.18;100.00
8641;BME280;4358;42.100;25.222;2023-01-30T02:52:59;100388.53;;;4.10;100.00
8641;BME280;4358;42.100;25.222;2023-01-30T02:55:27;100392.69;;;4.17;100.00
8641;BME280;4358;42.100;25.222;2023-01-30T02:57:55;100403.28;;;4.14;100.00
8641;BME280;4358;42.100;25.222;2023-01-30T03:00:32;100403.13;;;4.19;100.00
8641;BME280;4358;42.100;25.222;2023-01-30T03:03:21;100406.41;;;4.25;100.00
8641;BME280;4358;42.100;25.222;2023-01-30T03:06:23;100407.28;;;4.26;100.00
8641;BME280;4358;42.100;25.222;2023-01-30T03:09:02;100408.84;;;4.32;100.00
8641;BME280;4358;42.100;25.222;2023-01-30T03:11:40;100405.38;;;4.30;100.00
8641;BME280;4358;42.100;25.222;2023-01-30T03:14:17;100399.16;;;4.34;100.00
8641;BME280;4358;42.100;25.222;2023-01-30T03:16:46;100405.38;;;4.30;100.00
8641;BME280;4358;42.100;25.222;2023-01-30T03:19:18;100395.88;;;4.27;100.00
8641;BME280;4358;42.100;25.222;2023-01-30T03:21:45;100402.06;;;4.24;100.00
8641;BME280;4358;42.100;25.222;2023-01-30T03:24:13;100405.47;;;4.28;100.00
8641;BME280;4358;42.100;25.222;2023-01-30T03:26:45;100399.66;;;4.18;100.00
8641;BME280;4358;42.100;25.222;2023-01-30T03:29:14;100394.09;;;4.01;100.00
8641;BME280;4358;42.100;25.222;2023-01-30T03:31:41;100401.16;;;3.99;100.00
8641;BME280;4358;42.100;25.222;2023-01-30T03:34:08;100398.63;;;3.96;100.00
8641;BME280;4358;42.100;25.222;2023-01-30T03:36:36;100392.47;;;3.97;100.00
8641;BME280;4358;42.100;25.222;2023-01-30T03:39:03;100395.00;;;4.00;100.00
8641;BME280;4358;42.100;25.222;2023-01-30T03:41:30;100389.84;;;3.97;100.00
8641;BME280;4358;42.100;25.222;2023-01-30T03:43:57;100388.63;;;3.81;100.00
8641;BME280;4358;42.100;25.222;2023-01-30T03:46:24;100393.88;;;3.81;100.00
8641;BME280;4358;42.100;25.222;2023-01-30T03:48:50;100383.19;;;3.87;100.00
8641;BME280;4358;42.100;25.222;2023-01-30T03:51:18;100386.53;;;3.92;100.00
8641;BME280;4358;42.100;25.222;2023-01-30T03:53:46;100395.84;;;4.01;100.00
8641;BME280;4358;42.100;25.222;2023-01-30T03:56:13;100387.81;;;4.05;100.00
8641;BME280;4358;42.100;25.222;2023-01-30T03:58:40;100396.53;;;4.07;100.00
8641;BME280;4358;42.100;25.222;2023-01-30T04:01:06;100392.84;;;4.13;100.00
8641;BME280;4358;42.100;25.222;2023-01-30T04:03:33;100393.63;;;4.15;100.00
8641;BME280;4358;42.100;25.222;2023-01-30T04:06:00;100389.16;;;4.18;100.00
8641;BME280;4358;42.100;25.222;2023-01-30T04:08:27;100387.22;;;4.23;100.00
8641;BME280;4358;42.100;25.222;2023-01-30T04:10:55;100385.22;;;4.30;100.00
8641;BME280;4358;42.100;25.222;2023-01-30T04:13:22;100379.19;;;4.28;100.00
8641;BME280;4358;42.100;25.222;2023-01-30T04:15:49;100388.84;;;4.28;100.00
8641;BME280;4358;42.100;25.222;2023-01-30T04:18:15;100383.59;;;4.28;100.00
8641;BME280;4358;42.100;25.222;2023-01-30T04:20:42;100386.16;;;4.29;100.00
8641;BME280;4358;42.100;25.222;2023-01-30T04:23:09;100392.50;;;4.23;100.00
8641;BME280;4358;42.100;25.222;2023-01-30T04:25:36;100389.94;;;3.94;100.00
8641;BME280;4358;42.100;25.222;2023-01-30T04:28:04;100390.78;;;3.95;100.00
8641;BME280;4358;42.100;25.222;2023-01-30T04:30:31;100390.03;;;3.91;100.00
8641;BME280;4358;42.100;25.222;2023-01-30T04:32:58;100386.56;;;3.91;100.00
8641;BME280;4358;42.100;25.222;2023-01-30T04:35:25;100395.47;;;3.57;100.00
8641;BME280;4358;42.100;25.222;2023-01-30T04:37:51;100398.25;;;3.53;100.00
8641;BME280;4358;42.100;25.222;2023-01-30T04:40:18;100379.44;;;3.38;100.00
8641;BME280;4358;42.100;25.222;2023-01-30T04:42:45;100383.91;;;3.35;100.00
8641;BME280;4358;42.100;25.222;2023-01-30T04:45:13;100381.81;;;3.18;100.00
8641;BME280;4358;42.100;25.222;2023-01-30T04:47:40;100380.47;;;3.33;100.00
8641;BME280;4358;42.100;25.222;2023-01-30T04:50:08;100383.59;;;3.16;100.00
8641;BME280;4358;42.100;25.222;2023-01-30T04:52:35;100385.16;;;3.23;100.00
8641;BME280;4358;42.100;25.222;2023-01-30T04:55:02;100385.03;;;3.26;100.00
8641;BME280;4358;42.100;25.222;2023-01-30T04:57:30;100386.06;;;3.22;100.00
8641;BME280;4358;42.100;25.222;2023-01-30T04:59:57;100390.75;;;3.11;100.00
8641;BME280;4358;42.100;25.222;2023-01-30T05:02:25;100385.59;;;3.08;100.00
8641;BME280;4358;42.100;25.222;2023-01-30T05:04:51;100394.84;;;3.20;100.00
8641;BME280;4358;42.100;25.222;2023-01-30T05:07:18;100394.19;;;3.13;100.00
8641;BME280;4358;42.100;25.222;2023-01-30T05:09:45;100397.03;;;3.06;100.00
8641;BME280;4358;42.100;25.222;2023-01-30T05:12:12;100400.31;;;3.14;100.00
8641;BME280;4358;42.100;25.222;2023-01-30T05:14:39;100401.06;;;3.17;100.00
8641;BME280;4358;42.100;25.222;2023-01-30T05:17:06;100398.66;;;3.10;100.00
8641;BME280;4358;42.100;25.222;2023-01-30T05:19:35;100402.00;;;3.15;100.00
8641;BME280;4358;42.100;25.222;2023-01-30T05:22:02;100409.66;;;3.22;100.00
8641;BME280;4358;42.100;25.222;2023-01-30T05:24:28;100409.72;;;3.19;100.00
8641;BME280;4358;42.100;25.222;2023-01-30T05:26:55;100405.53;;;3.14;100.00
8641;BME280;4358;42.100;25.222;2023-01-30T05:29:22;100407.88;;;3.24;100.00
8641;BME280;4358;42.100;25.222;2023-01-30T05:31:49;100394.50;;;3.32;100.00
8641;BME280;4358;42.100;25.222;2023-01-30T05:34:16;100398.56;;;3.42;100.00
8641;BME280;4358;42.100;25.222;2023-01-30T05:36:44;100404.47;;;3.50;100.00
8641;BME280;4358;42.100;25.222;2023-01-30T05:39:11;100403.69;;;3.47;100.00
8641;BME280;4358;42.100;25.222;2023-01-30T05:41:37;100400.44;;;3.38;100.00
8641;BME280;4358;42.100;25.222;2023-01-30T05:44:04;100407.47;;;3.36;100.00
8641;BME280;4358;42.100;25.222;2023-01-30T05:46:31;100405.97;;;3.29;100.00
8641;BME280;4358;42.100;25.222;2023-01-30T05:48:58;100404.25;;;3.28;100.00
8641;BME280;4358;42.100;25.222;2023-01-30T05:51:26;100406.03;;;3.26;100.00
8641;BME280;4358;42.100;25.222;2023-01-30T05:53:54;100409.38;;;3.31;100.00
8641;BME280;4358;42.100;25.222;2023-01-30T05:56:21;100408.47;;;3.32;100.00
8641;BME280;4358;42.100;25.222;2023-01-30T05:58:50;100407.63;;;3.32;100.00
8641;BME280;4358;42.100;25.222;2023-01-30T06:01:17;100418.69;;;3.41;100.00
8641;BME280;4358;42.100;25.222;2023-01-30T06:03:43;100413.25;;;3.49;100.00
8641;BME280;4358;42.100;25.222;2023-01-30T06:06:11;100411.41;;;3.51;100.00
8641;BME280;4358;42.100;25.222;2023-01-30T06:08:38;100415.06;;;3.46;100.00
8641;BME280;4358;42.100;25.222;2023-01-30T06:11:08;100423.31;;;3.63;100.00
8641;BME280;4358;42.100;25.222;2023-01-30T06:13:35;100430.16;;;3.67;100.00
8641;BME280;4358;42.100;25.222;2023-01-30T06:16:03;100425.38;;;3.81;100.00
8641;BME280;4358;42.100;25.222;2023-01-30T06:18:30;100427.59;;;3.93;100.00
8641;BME280;4358;42.100;25.222;2023-01-30T06:20:57;100431.66;;;4.03;100.00
8641;BME280;4358;42.100;25.222;2023-01-30T06:23:23;100427.75;;;4.16;100.00
8641;BME280;4358;42.100;25.222;2023-01-30T06:25:51;100427.53;;;4.22;100.00
8641;BME280;4358;42.100;25.222;2023-01-30T06:28:21;100427.97;;;4.35;100.00
8641;BME280;4358;42.100;25.222;2023-01-30T06:30:48;100432.78;;;4.49;100.00
8641;BME280;4358;42.100;25.222;2023-01-30T06:33:15;100431.66;;;4.56;100.00
8641;BME280;4358;42.100;25.222;2023-01-30T06:35:43;100435.75;;;4.64;100.00
8641;BME280;4358;42.100;25.222;2023-01-30T06:38:11;100423.63;;;4.60;100.00
8641;BME280;4358;42.100;25.222;2023-01-30T06:40:39;100443.38;;;4.72;100.00
8641;BME280;4358;42.100;25.222;2023-01-30T06:43:06;100443.44;;;4.71;100.00
8641;BME280;4358;42.100;25.222;2023-01-30T06:45:34;100447.03;;;4.68;100.00
8641;BME280;4358;42.100;25.222;2023-01-30T06:48:01;100445.94;;;4.49;100.00
8641;BME280;4358;42.100;25.222;2023-01-30T06:50:28;100450.66;;;4.39;100.00
8641;BME280;4358;42.100;25.222;2023-01-30T06:52:56;100444.91;;;4.26;100.00
8641;BME280;4358;42.100;25.222;2023-01-30T06:55:25;100455.44;;;4.26;100.00
8641;BME280;4358;42.100;25.222;2023-01-30T06:58:00;100449.56;;;4.18;100.00
8641;BME280;4358;42.100;25.222;2023-01-30T07:00:27;100452.28;;;4.15;100.00
8641;BME280;4358;42.100;25.222;2023-01-30T07:02:55;100439.97;;;4.17;100.00
8641;BME280;4358;42.100;25.222;2023-01-30T07:05:22;100439.97;;;4.17;100.00
8641;BME280;4358;42.100;25.222;2023-01-30T07:07:49;100444.56;;;4.11;100.00
8641;BME280;4358;42.100;25.222;2023-01-30T07:10:16;100444.00;;;4.01;100.00
8641;BME280;4358;42.100;25.222;2023-01-30T07:12:44;100448.22;;;4.05;100.00
8641;BME280;4358;42.100;25.222;2023-01-30T07:15:11;100449.13;;;4.04;100.00
8641;BME280;4358;42.100;25.222;2023-01-30T07:17:39;100445.50;;;4.08;100.00
8641;BME280;4358;42.100;25.222;2023-01-30T07:20:09;100426.84;;;3.90;100.00
8641;BME280;4358;42.100;25.222;2023-01-30T07:22:36;100442.38;;;3.97;100.00
8641;BME280;4358;42.100;25.222;2023-01-30T07:25:03;100431.06;;;3.95;100.00
8641;BME280;4358;42.100;25.222;2023-01-30T07:27:30;100444.50;;;3.84;100.00
8641;BME280;4358;42.100;25.222;2023-01-30T07:29:57;100437.59;;;3.82;100.00
8641;BME280;4358;42.100;25.222;2023-01-30T07:32:24;100452.53;;;3.80;100.00
8641;BME280;4358;42.100;25.222;2023-01-30T07:34:51;100430.81;;;3.75;100.00
8641;BME280;4358;42.100;25.222;2023-01-30T07:37:19;100451.44;;;3.87;100.00
8641;BME280;4358;42.100;25.222;2023-01-30T07:39:46;100442.63;;;3.88;100.00
8641;BME280;4358;42.100;25.222;2023-01-30T07:42:12;100440.94;;;3.87;100.00
8641;BME280;4358;42.100;25.222;2023-01-30T07:44:39;100448.09;;;3.82;100.00
8641;BME280;4358;42.100;25.222;2023-01-30T07:47:06;100446.63;;;3.72;100.00
8641;BME280;4358;42.100;25.222;2023-01-30T07:49:33;100437.69;;;3.79;100.00
8641;BME280;4358;42.100;25.222;2023-01-30T07:52:00;100436.53;;;3.88;100.00
8641;BME280;4358;42.100;25.222;2023-01-30T07:54:28;100428.53;;;3.92;100.00
8641;BME280;4358;42.100;25.222;2023-01-30T07:56:55;100432.63;;;4.01;100.00
8641;BME280;4358;42.100;25.222;2023-01-30T07:59:22;100435.09;;;4.05;100.00
8641;BME280;4358;42.100;25.222;2023-01-30T08:01:49;100422.34;;;3.93;100.00
8641;BME280;4358;42.100;25.222;2023-01-30T08:04:15;100432.75;;;3.98;100.00
8641;BME280;4358;42.100;25.222;2023-01-30T08:06:42;100431.75;;;4.00;100.00
8641;BME280;4358;42.100;25.222;2023-01-30T08:09:09;100423.22;;;3.94;100.00
8641;BME280;4358;42.100;25.222;2023-01-30T08:11:37;100426.03;;;3.88;100.00
8641;BME280;4358;42.100;25.222;2023-01-30T08:14:04;100432.44;;;3.79;100.00
8641;BME280;4358;42.100;25.222;2023-01-30T08:16:31;100414.91;;;3.79;100.00
8641;BME280;4358;42.100;25.222;2023-01-30T08:18:58;100435.19;;;3.74;100.00
8641;BME280;4358;42.100;25.222;2023-01-30T08:21:25;100412.78;;;3.64;100.00
8641;BME280;4358;42.100;25.222;2023-01-30T08:23:52;100436.06;;;3.75;100.00
8641;BME280;4358;42.100;25.222;2023-01-30T08:26:19;100422.66;;;3.84;100.00
8641;BME280;4358;42.100;25.222;2023-01-30T08:28:47;100408.53;;;3.60;100.00
8641;BME280;4358;42.100;25.222;2023-01-30T08:31:15;100418.47;;;3.77;100.00
8641;BME280;4358;42.100;25.222;2023-01-30T08:33:43;100409.63;;;3.81;100.00
8641;BME280;4358;42.100;25.222;2023-01-30T08:36:09;100404.81;;;3.94;100.00
8641;BME280;4358;42.100;25.222;2023-01-30T08:38:36;100410.09;;;3.94;100.00
8641;BME280;4358;42.100;25.222;2023-01-30T08:41:04;100401.75;;;3.81;100.00
8641;BME280;4358;42.100;25.222;2023-01-30T08:43:32;100415.41;;;3.92;100.00
8641;BME280;4358;42.100;25.222;2023-01-30T08:46:00;100414.56;;;3.90;100.00
8641;BME280;4358;42.100;25.222;2023-01-30T08:48:27;100405.69;;;3.94;100.00
8641;BME280;4358;42.100;25.222;2023-01-30T08:50:55;100406.47;;;3.98;100.00
8641;BME280;4358;42.100;25.222;2023-01-30T08:53:23;100418.66;;;3.99;100.00
8641;BME280;4358;42.100;25.222;2023-01-30T08:55:50;100402.28;;;3.92;100.00
8641;BME280;4358;42.100;25.222;2023-01-30T08:58:17;100410.75;;;4.00;100.00
8641;BME280;4358;42.100;25.222;2023-01-30T09:00:44;100412.78;;;3.92;100.00
8641;BME280;4358;42.100;25.222;2023-01-30T09:03:13;100396.72;;;4.01;100.00
8641;BME280;4358;42.100;25.222;2023-01-30T09:05:40;100410.56;;;4.06;100.00
8641;BME280;4358;42.100;25.222;2023-01-30T09:08:06;100409.59;;;4.09;100.00
8641;BME280;4358;42.100;25.222;2023-01-30T09:10:33;100398.31;;;4.05;100.00
8641;BME280;4358;42.100;25.222;2023-01-30T09:13:00;100396.22;;;4.16;100.00
8641;BME280;4358;42.100;25.222;2023-01-30T09:15:27;100392.69;;;4.17;100.00
8641;BME280;4358;42.100;25.222;2023-01-30T09:17:54;100387.44;;;4.17;100.00
8641;BME280;4358;42.100;25.222;2023-01-30T09:20:22;100388.53;;;4.10;100.00
8641;BME280;4358;42.100;25.222;2023-01-30T09:22:50;100384.38;;;4.03;100.00
8641;BME280;4358;42.100;25.222;2023-01-30T09:25:17;100381.41;;;4.14;100.00
8641;BME280;4358;42.100;25.222;2023-01-30T09:27:47;100378.53;;;4.21;100.00
8641;BME280;4358;42.100;25.222;2023-01-30T09:30:14;100372.28;;;4.24;100.00
8641;BME280;4358;42.100;25.222;2023-01-30T09:32:41;100369.63;;;4.25;100.00
8641;BME280;4358;42.100;25.222;2023-01-30T09:35:08;100366.09;;;4.26;100.00
8641;BME280;4358;42.100;25.222;2023-01-30T09:37:37;100363.31;;;4.31;100.00
8641;BME280;4358;42.100;25.222;2023-01-30T09:40:04;100358.16;;;4.28;100.00
8641;BME280;4358;42.100;25.222;2023-01-30T09:42:45;100358.91;;;4.32;100.00
8641;BME280;4358;42.100;25.222;2023-01-30T09:45:40;100351.91;;;4.32;100.00
8641;BME280;4358;42.100;25.222;2023-01-30T09:48:14;100336.88;;;4.36;100.00
8641;BME280;4358;42.100;25.222;2023-01-30T09:50:59;100334.25;;;4.36;100.00
8641;BME280;4358;42.100;25.222;2023-01-30T09:53:36;100330.00;;;4.32;100.00
8641;BME280;4358;42.100;25.222;2023-01-30T09:56:05;100345.63;;;4.36;100.00
8641;BME280;4358;42.100;25.222;2023-01-30T09:58:41;100320.38;;;4.55;100.00
8641;BME280;4358;42.100;25.222;2023-01-30T10:01:17;100315.69;;;4.65;100.00
8641;BME280;4358;42.100;25.222;2023-01-30T10:03:57;100326.63;;;4.53;100.00
8641;BME280;4358;42.100;25.222;2023-01-30T10:06:27;100316.13;;;4.53;100.00
8641;BME280;4358;42.100;25.222;2023-01-30T10:09:00;100316.75;;;4.59;100.00
8641;BME280;4358;42.100;25.222;2023-01-30T10:11:44;100304.63;;;4.55;100.00
8641;BME280;4358;42.100;25.222;2023-01-30T10:14:24;100308.22;;;4.53;100.00
8641;BME280;4358;42.100;25.222;2023-01-30T10:17:03;100300.34;;;4.53;100.00
8641;BME280;4358;42.100;25.222;2023-01-30T10:19:46;100303.09;;;4.50;100.00
8641;BME280;4358;42.100;25.222;2023-01-30T10:22:24;100287.22;;;4.53;100.00
8641;BME280;4358;42.100;25.222;2023-01-30T10:25:05;100289.66;;;4.57;100.00
8641;BME280;4358;42.100;25.222;2023-01-30T10:27:41;100280.06;;;4.56;100.00
8641;BME280;4358;42.100;25.222;2023-01-30T10:30:14;100273.84;;;4.59;100.00
8641;BME280;4358;42.100;25.222;2023-01-30T10:32:45;100277.03;;;4.67;100.00
8641;BME280;4358;42.100;25.222;2023-01-30T10:35:16;100260.22;;;4.71;100.00
8641;BME280;4358;42.100;25.222;2023-01-30T10:37:52;100268.47;;;4.62;100.00
8641;BME280;4358;42.100;25.222;2023-01-30T10:40:27;100246.06;;;4.52;100.00
8641;BME280;4358;42.100;25.222;2023-01-30T10:43:01;100243.16;;;4.59;100.00
8641;BME280;4358;42.100;25.222;2023-01-30T10:45:35;100239.84;;;4.54;100.00
8641;BME280;4358;42.100;25.222;2023-01-30T10:48:17;100234.69;;;4.51;100.00
8641;BME280;4358;42.100;25.222;2023-01-30T10:50:49;100229.16;;;4.59;100.00
8641;BME280;4358;42.100;25.222;2023-01-30T10:53:25;100206.75;;;4.49;100.00
8641;BME280;4358;42.100;25.222;2023-01-30T10:56:01;100209.03;;;4.58;100.00
8641;BME280;4358;42.100;25.222;2023-01-30T10:58:35;100213.16;;;4.65;100.00
8641;BME280;4358;42.100;25.222;2023-01-30T11:01:09;100199.88;;;4.68;100.00
8641;BME280;4358;42.100;25.222;2023-01-30T11:03:40;100192.91;;;4.67;100.00
8641;BME280;4358;42.100;25.222;2023-01-30T11:06:12;100189.59;;;4.62;100.00
8641;BME280;4358;42.100;25.222;2023-01-30T11:08:42;100186.97;;;4.62;100.00
8641;BME280;4358;42.100;25.222;2023-01-30T11:11:42;100173.03;;;4.60;100.00
8641;BME280;4358;42.100;25.222;2023-01-30T11:14:12;100168.56;;;4.62;100.00
8641;BME280;4358;42.100;25.222;2023-01-30T11:16:43;100171.19;;;4.62;100.00
8641;BME280;4358;42.100;25.222;2023-01-30T11:19:13;100158.06;;;4.62;100.00
8641;BME280;4358;42.100;25.222;2023-01-30T11:21:41;100154.66;;;4.60;100.00
8641;BME280;4358;42.100;25.222;2023-01-30T11:24:14;100149.13;;;4.66;100.00
8641;BME280;4358;42.100;25.222;2023-01-30T11:26:44;100145.34;;;4.73;100.00
8641;BME280;4358;42.100;25.222;2023-01-30T11:29:30;100141.44;;;4.83;100.00
8641;BME280;4358;42.100;25.222;2023-01-30T11:32:00;100141.16;;;4.91;100.00
8641;BME280;4358;42.100;25.222;2023-01-30T11:34:29;100143.63;;;4.94;100.00
8641;BME280;4358;42.100;25.222;2023-01-30T11:37:11;100130.00;;;4.84;100.00
8641;BME280;4358;42.100;25.222;2023-01-30T11:39:47;100133.38;;;4.88;100.00
8641;BME280;4358;42.100;25.222;2023-01-30T11:42:18;100118.56;;;4.85;100.00
8641;BME280;4358;42.100;25.222;2023-01-30T11:44:45;100126.38;;;4.87;100.00
8641;BME280;4358;42.100;25.222;2023-01-30T11:47:19;100114.66;;;4.95;100.00
8641;BME280;4358;42.100;25.222;2023-01-30T11:49:48;100103.63;;;5.07;100.00
8641;BME280;4358;42.100;25.222;2023-01-30T11:52:18;100105.56;;;5.02;100.00
8641;BME280;4358;42.100;25.222;2023-01-30T11:54:47;100098.09;;;5.13;100.00
8641;BME280;4358;42.100;25.222;2023-01-30T11:57:15;100100.69;;;5.15;100.00
8641;BME280;4358;42.100;25.222;2023-01-30T11:59:46;100097.06;;;5.18;100.00
8641;BME280;4358;42.100;25.222;2023-01-30T12:02:18;100091.31;;;5.08;100.00
8641;BME280;4358;42.100;25.222;2023-01-30T12:04:49;100078.34;;;5.03;100.00
8641;BME280;4358;42.100;25.222;2023-01-30T12:07:20;100083.94;;;4.96;100.00
8641;BME280;4358;42.100;25.222;2023-01-30T12:09:48;100067.56;;;4.89;100.00
8641;BME280;4358;42.100;25.222;2023-01-30T12:12:28;100078.88;;;4.91;100.00
8641;BME280;4358;42.100;25.222;2023-01-30T12:15:04;100073.50;;;4.94;100.00
8641;BME280;4358;42.100;25.222;2023-01-30T12:17:38;100073.44;;;4.96;100.00
8641;BME280;4358;42.100;25.222;2023-01-30T12:20:14;100054.47;;;4.88;100.00
8641;BME280;4358;42.100;25.222;2023-01-30T12:22:48;100063.78;;;4.96;100.00
8641;BME280;4358;42.100;25.222;2023-01-30T12:25:20;100065.22;;;5.03;100.00
8641;BME280;4358;42.100;25.222;2023-01-30T12:27:55;100060.94;;;5.01;100.00
8641;BME280;4358;42.100;25.222;2023-01-30T12:30:31;100061.00;;;4.99;100.00
8641;BME280;4358;42.100;25.222;2023-01-30T12:33:02;100053.81;;;5.03;100.00
8641;BME280;4358;42.100;25.222;2023-01-30T12:35:39;100053.16;;;4.98;100.00
8641;BME280;4358;42.100;25.222;2023-01-30T12:38:14;100044.31;;;5.00;100.00
8641;BME280;4358;42.100;25.222;2023-01-30T12:40:50;100053.25;;;4.96;100.00
8641;BME280;4358;42.100;25.222;2023-01-30T12:43:40;100046.03;;;5.01;100.00
8641;BME280;4358;42.100;25.222;2023-01-30T12:46:19;100034.03;;;4.94;100.00
8641;BME280;4358;42.100;25.222;2023-01-30T12:48:57;100031.09;;;5.02;100.00
8641;BME280;4358;42.100;25.222;2023-01-30T12:51:38;100039.97;;;4.99;100.00
8641;BME280;4358;42.100;25.222;2023-01-30T12:54:24;100029.38;;;5.01;100.00
8641;BME280;4358;42.100;25.222;2023-01-30T12:57:13;100028.53;;;5.00;100.00
8641;BME280;4358;42.100;25.222;2023-01-30T12:59:51;100031.22;;;4.99;100.00
8641;BME280;4358;42.100;25.222;2023-01-30T13:02:35;100012.75;;;5.00;100.00
8641;BME280;4358;42.100;25.222;2023-01-30T13:05:18;100011.56;;;5.07;100.00
8641;BME280;4358;42.100;25.222;2023-01-30T13:07:58;100009.75;;;5.08;100.00
8641;BME280;4358;42.100;25.222;2023-01-30T13:10:34;99998.59;;;5.03;100.00
8641;BME280;4358;42.100;25.222;2023-01-30T13:13:12;100003.28;;;5.17;100.00
8641;BME280;4358;42.100;25.222;2023-01-30T13:15:44;100008.38;;;5.20;100.00
8641;BME280;4358;42.100;25.222;2023-01-30T13:18:17;100001.34;;;5.20;100.00
8641;BME280;4358;42.100;25.222;2023-01-30T13:20:53;100003.94;;;5.01;100.00
8641;BME280;4358;42.100;25.222;2023-01-30T13:23:26;100001.22;;;5.03;100.00